Terminal Aerodrome Forecast
Issued by NWS

Home | Current Version | Previous Version | Text Only | Print | Product List | Glossary Off
Versions: 1 2 3 4 5 6 7 8 9 10 11 12 13 14 15 16 17 18 19 20 21 22 23

000
FTUS43 KGRB 251500 AAA
TAFCWA
TAF AMD
KCWA 251522Z 2515/2612 30010KT P6SM SCT016 SCT120
     FM251600 29009KT P6SM -SN OVC016
     FM252000 27007KT P6SM FEW035 SCT100
     FM252300 23003KT P6SM SKC=

USA.gov is the U.S. government's official web portal to all federal, state and local government web resources and services.